Thunder radar more information blitzortung!


Radar de pluja more information rain snow radar


Visita la nostra xarxa de llocs de meteo:

Template documentation
and downloads

And another site



No particular awareness of the weather is required.    There are no Weather-warnings

Pagina Historial Weather Underground text

Diari Resum January 6, 2018 Unitats:  Mètric    Imperial   Tant
« Previous Dia
SegĂźent Dia »
Diari Setmana Mensual Anual Personalitzada
  Maxima: Minima: Media:
Temperatura: -17.8 °C -15.2 °C -11.4 °C
Punt de rosada: -17.8 °C -18.6 °C -14.4 °C
Humitat: Humidity % 52 % 70 %
Wind Speed: 0 km/h 0 km/h 14 km/h
RĂ fegues de vent: 0 km/h - -
Vent:- - East
Pression baro: 0 hPa 33751.6 hPa -
Precipitacions: 264.16 mm    
Historical Graphs
 
 
Dades de taula per January 6, 2018
Temps Temperatura Punt de rosada Pression baro Vent Wind Speed RĂ fegues de vent Humitat Rainfall Rate (Hourly)
-17.8 °C -17.8 °C 0 hPa Calm     Humidity % 0 mm
00:00 -15.2 °C -18.6 °C 33992.1 hPa Calm   2.6 km/h 65 % 0 mm
00:03 -12.9 °C -17.9 °C 34097 hPa NE 3.1 km/h   53 % 0 mm
00:04 -12.9 °C -17.9 °C 34097 hPa Calm     53 % 0 mm
00:09 -12.9 °C -18.1 °C 34097 hPa NW 3.1 km/h 3.7 km/h 52 % 0 mm
00:10 -15.1 °C -18.4 °C 33992.1 hPa SE 2.6 km/h 5.1 km/h 65 % 0 mm
00:11 -12.9 °C -18.1 °C 34097 hPa NW 3.1 km/h   52 % 0 mm
00:16 -12.9 °C -17.9 °C 34097 hPa WNW 6 km/h 6 km/h 53 % 0 mm
00:18 -12.9 °C -17.9 °C 34097 hPa WNW 3.1 km/h   53 % 0 mm
00:23 -13.1 °C -18.1 °C 34097 hPa West 6 km/h 6 km/h 53 % 0 mm
00:25 -13.1 °C -18.1 °C 34097 hPa West 3.1 km/h 3.1 km/h 53 % 0 mm
00:30 -13.1 °C -18.1 °C 34097 hPa ENE 3.1 km/h 3.7 km/h 53 % 0 mm
00:31 -13.1 °C -18.1 °C 34097 hPa ENE 3.7 km/h   53 % 0 mm
00:36 -13.2 °C -18.1 °C 34063.2 hPa NNE 3.1 km/h   54 % 0 mm
00:38 -13.2 °C -18.1 °C 34063.2 hPa Calm     54 % 0 mm
00:43 -13.2 °C -18.1 °C 34063.2 hPa West 5.1 km/h 5.1 km/h 54 % 0 mm
00:48 -13.3 °C -18.3 °C 34063.2 hPa WSW 6 km/h 6 km/h 53 % 0 mm
00:50 -13.2 °C -18.1 °C 34063.2 hPa WSW 6 km/h 6 km/h 54 % 0 mm
00:55 -13.2 °C -18.1 °C 34063.2 hPa WSW 6 km/h 6 km/h 54 % 0 mm
00:56 -13.2 °C -18.1 °C 34063.2 hPa WSW 6 km/h 6 km/h 54 % 0 mm
00:57 -13.2 °C -18.1 °C 34063.2 hPa SW 3.7 km/h 3.7 km/h 54 % 0 mm
01:02 -13.2 °C -18.1 °C 34063.2 hPa ESE 8 km/h 8 km/h 54 % 0 mm
01:07 -13.4 °C -18.2 °C 34063.2 hPa ESE 9 km/h 9 km/h 55 % 0 mm
01:09 -13.4 °C -18.2 °C 34063.2 hPa NE 6 km/h 6 km/h 55 % 0 mm
01:20 -15.1 °C -18.2 °C 33992.1 hPa WSW 2.6 km/h 2.6 km/h 67 % 0 mm
01:40 -15.2 °C -18.4 °C 33992.1 hPa SW 5.1 km/h 7.7 km/h 66 % 0 mm
01:50 -15.1 °C -18.3 °C 33992.1 hPa Calm   7.7 km/h 66 % 0 mm
02:00 -15.1 °C -18.2 °C 33992.1 hPa Calm   5.1 km/h 67 % 0 mm
02:10 -15.1 °C -18.2 °C 33992.1 hPa SW 5.1 km/h 7.7 km/h 67 % 0 mm
02:20 -15.1 °C -18.2 °C 33992.1 hPa SW 2.6 km/h 5.1 km/h 67 % 0 mm
02:30 -14.9 °C -18.1 °C 33992.1 hPa Calm   7.7 km/h 67 % 0 mm
02:40 -14.9 °C -18 °C 33992.1 hPa Calm   2.6 km/h 67 % 0 mm
02:50 -14.8 °C -17.9 °C 33992.1 hPa Calm   2.6 km/h 67 % 0 mm
03:00 -14.8 °C -17.9 °C 33992.1 hPa Calm   5.1 km/h 67 % 0 mm
03:10 -14.6 °C -17.7 °C 34029.3 hPa SW 2.6 km/h 5.1 km/h 68 % 0 mm
03:20 -14.3 °C -17.3 °C 33992.1 hPa Calm     68 % 0 mm
03:30 -14.2 °C -17.4 °C 33992.1 hPa Calm   5.1 km/h 67 % 0 mm
03:40 -14.2 °C -17.3 °C 33992.1 hPa West 7.7 km/h 7.7 km/h 67 % 0 mm
03:50 -14.1 °C -17.3 °C 34029.3 hPa NW 2.6 km/h 10.3 km/h 67 % 0 mm
04:00 -13.9 °C -17.2 °C 34029.3 hPa WNW 5.1 km/h 12.9 km/h 66 % 0 mm
04:10 -13.7 °C -16.9 °C 33992.1 hPa NNE 5.1 km/h 7.7 km/h 67 % 0 mm
04:20 -13.6 °C -16.9 °C 33992.1 hPa NE 2.6 km/h 5.1 km/h 66 % 0 mm
04:30 -13.5 °C -16.8 °C 33992.1 hPa NNE 2.6 km/h 5.1 km/h 66 % 0 mm
04:40 -13.3 °C -16.6 °C 33992.1 hPa NNE 2.6 km/h 5.1 km/h 66 % 0 mm
04:50 -13.2 °C -16.6 °C 33992.1 hPa Calm   5.1 km/h 66 % 0 mm
05:00 -13 °C -16.3 °C 33992.1 hPa NE 5.1 km/h 7.7 km/h 66 % 0 mm
05:20 -12.8 °C -16.2 °C 34029.3 hPa ENE 2.6 km/h 5.1 km/h 65 % 0 mm
05:30 -12.8 °C -16.2 °C 34029.3 hPa NE 2.6 km/h 7.7 km/h 65 % 0 mm
05:40 -12.7 °C -16.3 °C 34029.3 hPa ENE 5.1 km/h 5.1 km/h 64 % 0 mm
11:49 -12.7 °C -16.3 °C 34029.3 hPa West 9 km/h 9 km/h 64 % 0 mm
11:50 -12.7 °C -16.3 °C 34029.3 hPa NE 9 km/h 9 km/h 64 % 0 mm
11:55 -12.6 °C -16.2 °C 33992.1 hPa NNE 11.9 km/h 11.9 km/h 64 % 0 mm
12:00 -12.6 °C -16.2 °C 33992.1 hPa NNE 9 km/h 9 km/h 64 % 0 mm
12:05 -12.5 °C -16.1 °C 33992.1 hPa NE 8.5 km/h 8.5 km/h 64 % 0 mm
12:10 -12.4 °C -16 °C 33992.1 hPa ENE 6.8 km/h 6.8 km/h 64 % 0 mm
12:11 -12.4 °C -16 °C 33992.1 hPa NNW 6 km/h 6 km/h 64 % 0 mm
12:16 -12.2 °C -15.8 °C 33992.1 hPa NNE 6 km/h 6 km/h 64 % 0 mm
12:21 -12.1 °C -15.7 °C 33992.1 hPa NE 6 km/h 6 km/h 64 % 0 mm
12:25 -12 °C -15.6 °C 33992.1 hPa NNE 6 km/h 6 km/h 64 % 0 mm
12:30 -11.9 °C -15.5 °C 33992.1 hPa North 9 km/h 9 km/h 64 % 0 mm
12:35 -11.8 °C -15.4 °C 33992.1 hPa NNE 6 km/h 6 km/h 64 % 0 mm
12:40 -11.9 °C -15.5 °C 33992.1 hPa ENE 11.9 km/h 11.9 km/h 64 % 0 mm
12:46 -11.9 °C -15.7 °C 33992.1 hPa NNE 11.9 km/h 11.9 km/h 63 % 0 mm
12:51 -11.8 °C -15.5 °C 33958.2 hPa NW 6.3 km/h 6.3 km/h 63 % 0 mm
12:54 -11.8 °C -15.5 °C 33958.2 hPa West 4.2 km/h 5.1 km/h 63 % 0 mm
12:59 -11.7 °C -15.5 °C 33958.2 hPa WNW 9 km/h 9 km/h 63 % 0 mm
13:04 -11.7 °C -15.5 °C 33958.2 hPa NE 9.8 km/h 9.8 km/h 63 % 0 mm
13:09 -11.7 °C -15.5 °C 33958.2 hPa NE 6 km/h 6 km/h 63 % 0 mm
13:10 -11.7 °C -15.4 °C 33958.2 hPa NE 6 km/h 6 km/h 63 % 0 mm
13:12 -11.7 °C -15.4 °C 33958.2 hPa NE 9 km/h 9 km/h 63 % 0 mm
13:17 -11.5 °C -15.3 °C 33958.2 hPa NE 9 km/h 9 km/h 63 % 0 mm
13:20 -11.4 °C -15.2 °C 33958.2 hPa ENE 9 km/h 9 km/h 63 % 0 mm
13:25 -11.2 °C -15 °C 33958.2 hPa NNE 6 km/h 6 km/h 63 % 0 mm
13:27 -11.2 °C -15 °C 33958.2 hPa East 6.8 km/h 6.8 km/h 63 % 0 mm
13:32 -11.1 °C -14.9 °C 33958.2 hPa NE 11.9 km/h 11.9 km/h 63 % 0 mm
13:34 -11.1 °C -14.9 °C 33958.2 hPa NNE 9 km/h 9 km/h 63 % 0 mm
13:39 -11.1 °C -14.8 °C 33924.3 hPa NNE 11.9 km/h 11.9 km/h 63 % 0 mm
13:41 -11.1 °C -14.8 °C 33924.3 hPa ENE 9 km/h 9 km/h 63 % 0 mm
13:47 -11.1 °C -14.8 °C 33924.3 hPa North 15 km/h 15 km/h 63 % 0 mm
13:52 -10.9 °C -14.6 °C 33924.3 hPa ENE 3.1 km/h 3.1 km/h 64 % 0 mm
13:56 -10.9 °C -14.6 °C 33924.3 hPa NNE 3.1 km/h 3.1 km/h 64 % 0 mm
14:03 -10.8 °C -14.5 °C 33924.3 hPa Calm     64 % 0 mm
14:08 -10.8 °C -14.5 °C 33924.3 hPa Calm     64 % 0 mm
14:13 -10.7 °C -14.6 °C 33924.3 hPa NNE 6 km/h 6 km/h 63 % 0 mm
14:14 -10.7 °C -14.6 °C 33924.3 hPa NE 6 km/h 6 km/h 63 % 0 mm
14:19 -10.7 °C -14.6 °C 33924.3 hPa ENE 3.1 km/h 3.1 km/h 63 % 0 mm
14:24 -10.7 °C -14.5 °C 33924.3 hPa ENE 9.8 km/h 9.8 km/h 63 % 0 mm
14:28 -10.6 °C -14.4 °C 33924.3 hPa NE 9 km/h 9 km/h 63 % 0 mm
14:30 -10.6 °C -14.4 °C 33924.3 hPa NE 6.3 km/h 6.3 km/h 63 % 0 mm
14:35 -10.5 °C -14.3 °C 33924.3 hPa North 6.8 km/h 6.8 km/h 63 % 0 mm
14:40 -10.4 °C -14.1 °C 33890.5 hPa ENE 6 km/h 6 km/h 64 % 0 mm
14:45 -10.5 °C -14.3 °C 33890.5 hPa NE 11.9 km/h 11.9 km/h 63 % 0 mm
14:49 -10.4 °C -14.3 °C 33890.5 hPa ENE 9 km/h 9 km/h 63 % 0 mm
14:54 -10.5 °C -14.3 °C 33924.3 hPa ENE 15 km/h 15 km/h 63 % 0 mm
14:59 -10.5 °C -14.3 °C 33924.3 hPa NNE 11.9 km/h 11.9 km/h 63 % 0 mm
15:04 -10.5 °C -14.3 °C 33924.3 hPa NNE 17.9 km/h 17.9 km/h 63 % 0 mm
15:05 -10.4 °C -14.1 °C 33924.3 hPa NNE 15 km/h 15 km/h 64 % 0 mm
15:10 -10.4 °C -14.1 °C 33890.5 hPa East 15.6 km/h 15.6 km/h 64 % 0 mm
15:11 -10.4 °C -14.1 °C 33890.5 hPa East 15 km/h 15 km/h 64 % 0 mm
15:15 -10.4 °C -14.1 °C 33890.5 hPa NNE 11.9 km/h 11.9 km/h 64 % 0 mm
15:20 -10.4 °C -14.1 °C 33924.3 hPa NNE 12.7 km/h 12.7 km/h 64 % 0 mm
15:23 -10.4 °C -14.1 °C 33924.3 hPa NNE 15 km/h 15 km/h 64 % 0 mm
15:28 -10.3 °C -13.8 °C 33924.3 hPa East 22 km/h 22 km/h 65 % 0 mm
15:33 -10.2 °C -13.7 °C 33924.3 hPa ENE 17.9 km/h 17.9 km/h 66 % 0 mm
15:38 -10.2 °C -13.7 °C 33890.5 hPa East 20.9 km/h 20.9 km/h 66 % 0 mm
15:39 -10.2 °C -13.7 °C 33890.5 hPa NE 17.9 km/h 17.9 km/h 66 % 0 mm
15:44 -10.2 °C -13.7 °C 33890.5 hPa NE 15 km/h 15 km/h 66 % 0 mm
15:45 -10.2 °C -13.7 °C 33890.5 hPa ENE 20.3 km/h 20.3 km/h 66 % 0 mm
15:50 -10.2 °C -13.7 °C 33890.5 hPa East 19.2 km/h 19.2 km/h 66 % 0 mm
15:55 -10.2 °C -13.7 °C 33856.6 hPa ENE 19.6 km/h 19.6 km/h 66 % 0 mm
15:58 -10.2 °C -13.7 °C 33856.6 hPa NNE 23.8 km/h 23.8 km/h 66 % 0 mm
16:03 -10.3 °C -13.7 °C 33856.6 hPa ENE 17.9 km/h 17.9 km/h 66 % 0 mm
16:08 -10.3 °C -13.7 °C 33856.6 hPa NE 17.9 km/h 17.9 km/h 66 % 0 mm
16:13 -10.3 °C -13.7 °C 33856.6 hPa ENE 20.9 km/h 20.9 km/h 66 % 0 mm
16:18 -10.3 °C -13.7 °C 33856.6 hPa East 20.9 km/h 20.9 km/h 66 % 0 mm
16:23 -10.3 °C -13.8 °C 33856.6 hPa North 20.9 km/h 20.9 km/h 65 % 0 mm
16:25 -10.3 °C -13.8 °C 33856.6 hPa NNE 12.7 km/h 12.7 km/h 65 % 0 mm
16:30 -10.3 °C -13.9 °C 33856.6 hPa East 15 km/h 15 km/h 65 % 0 mm
16:31 -10.3 °C -13.9 °C 33856.6 hPa ENE 15 km/h 15 km/h 65 % 0 mm
16:34 -10.3 °C -13.9 °C 33856.6 hPa ENE 26.9 km/h 26.9 km/h 65 % 0 mm
16:39 -10.3 °C -13.9 °C 33856.6 hPa ENE 26.9 km/h 26.9 km/h 65 % 0 mm
16:44 -10.3 °C -13.9 °C 33856.6 hPa NNE 29 km/h 29 km/h 65 % 0 mm
16:49 -10.3 °C -13.9 °C 33856.6 hPa ENE 35.7 km/h 35.7 km/h 65 % 0 mm
16:54 -10.3 °C -13.8 °C 33856.6 hPa East 25.1 km/h 25.1 km/h 66 % 0 mm
16:57 -10.3 °C -13.8 °C 33856.6 hPa NE 26.9 km/h 26.9 km/h 66 % 0 mm
17:01 -10.3 °C -13.8 °C 33856.6 hPa NNE 26.9 km/h 26.9 km/h 66 % 0 mm
17:06 -10.3 °C -13.8 °C 33822.8 hPa ENE 20.9 km/h 20.9 km/h 66 % 0 mm
17:11 -10.3 °C -13.8 °C 33822.8 hPa ENE 20.9 km/h 20.9 km/h 66 % 0 mm
17:16 -10.3 °C -13.8 °C 33822.8 hPa ESE 23.8 km/h 23.8 km/h 66 % 0 mm
17:21 -10.4 °C -13.8 °C 33856.6 hPa NNE 20.9 km/h 20.9 km/h 66 % 0 mm
17:25 -10.4 °C -13.7 °C 33856.6 hPa North 15 km/h 15 km/h 67 % 0 mm
17:30 -10.4 °C -13.7 °C 33856.6 hPa NNE 26.9 km/h 26.9 km/h 67 % 0 mm
17:32 -10.4 °C -13.7 °C 33856.6 hPa NE 32.8 km/h 32.8 km/h 67 % 0 mm
17:37 -10.4 °C -13.7 °C 33822.8 hPa ENE 25.1 km/h 25.1 km/h 68 % 0 mm
17:39 -10.4 °C -13.7 °C 33822.8 hPa ENE 23.8 km/h 23.8 km/h 68 % 0 mm
17:42 -10.4 °C -13.7 °C 33822.8 hPa NNE 20.9 km/h 20.9 km/h 68 % 0 mm
17:47 -10.5 °C -13.7 °C 33822.8 hPa NNE 20.9 km/h 20.9 km/h 68 % 0 mm
17:52 -10.5 °C -13.6 °C 33822.8 hPa East 23.8 km/h 23.8 km/h 69 % 0 mm
17:57 -10.5 °C -13.6 °C 33822.8 hPa East 11.9 km/h 11.9 km/h 69 % 0 mm
17:59 -10.5 °C -13.6 °C 33822.8 hPa ENE 17.9 km/h 17.9 km/h 69 % 0 mm
18:04 -10.5 °C -13.5 °C 33822.8 hPa North 15 km/h 15 km/h 70 % 0 mm
18:06 -10.5 °C -13.5 °C 33856.6 hPa ENE 15 km/h 15 km/h 70 % 0 mm
18:07 -10.5 °C -13.4 °C 33856.6 hPa NNE 17.9 km/h 17.9 km/h 71 % 0 mm
18:12 -10.5 °C -13.4 °C 33856.6 hPa ENE 23.8 km/h 23.8 km/h 71 % 0 mm
18:20 -10.5 °C -13.2 °C 33856.6 hPa NE 20.8 km/h 38.8 km/h 72 % 0 mm
18:25 -10.6 °C -13.3 °C 33822.8 hPa ENE 12.9 km/h 31.1 km/h 72 % 0 mm
18:30 -10.6 °C -13.3 °C 33822.8 hPa ENE 15.6 km/h 31.1 km/h 72 % 0 mm
18:35 -10.6 °C -13.3 °C 33822.8 hPa ESE 20.9 km/h 20.9 km/h 72 % 0 mm
18:39 -10.6 °C -13.3 °C 33822.8 hPa East 9 km/h 9 km/h 72 % 0 mm
18:44 -10.6 °C -13.3 °C 33822.8 hPa East 25.1 km/h 25.1 km/h 72 % 0 mm
18:47 -10.6 °C -13.2 °C 33822.8 hPa ENE 15 km/h 15 km/h 73 % 0 mm
18:50 -10.8 °C -12.4 °C 33788.9 hPa ESE 5.1 km/h 7.7 km/h 83 % 0 mm
18:52 -10.6 °C -13.2 °C 33856.6 hPa ENE 15 km/h 15 km/h 73 % 0 mm
18:53 -10.6 °C -13.2 °C 33856.6 hPa ENE 15 km/h 15 km/h 73 % 0 mm
18:58 -10.6 °C -13.1 °C 33856.6 hPa NE 23.8 km/h 23.8 km/h 74 % 0 mm
19:00 -10.9 °C -12.5 °C 33788.9 hPa SSW 5.1 km/h 5.1 km/h 83 % 25.4 mm
19:02 -10.6 °C -13.1 °C 33856.6 hPa ENE 23.8 km/h 23.8 km/h 74 % 0 mm
19:07 -10.6 °C -13.1 °C 33856.6 hPa ENE 17.9 km/h 17.9 km/h 74 % 0 mm
19:09 -10.6 °C -13.1 °C 33856.6 hPa ESE 15 km/h 15 km/h 74 % 0 mm
19:14 -10.6 °C -13.1 °C 33856.6 hPa ESE 17.9 km/h 17.9 km/h 74 % 0 mm
19:19 -10.6 °C -13.1 °C 33856.6 hPa ENE 23.8 km/h 23.8 km/h 74 % 0 mm
19:20 -10.8 °C -12.1 °C 33788.9 hPa ESE 12.9 km/h 15.6 km/h 85 % 0 mm
19:21 -10.6 °C -12.9 °C 33822.8 hPa East 15 km/h 15 km/h 75 % 0 mm
19:26 -10.6 °C -12.8 °C 33822.8 hPa East 17.9 km/h 17.9 km/h 76 % 0 mm
19:30 -10.7 °C -12.1 °C 33788.9 hPa ESE 7.7 km/h 18.2 km/h 85 % 0 mm
19:31 -10.6 °C -12.8 °C 33822.8 hPa ENE 20.9 km/h 20.9 km/h 76 % 0 mm
19:36 -10.6 °C -12.8 °C 33856.6 hPa East 32.8 km/h 32.8 km/h 76 % 0 mm
19:42 -10.6 °C -12.8 °C 33856.6 hPa ENE 26.9 km/h 26.9 km/h 76 % 0 mm
19:43 -10.6 °C -12.8 °C 33856.6 hPa East 20.9 km/h 20.9 km/h 76 % 0 mm
19:47 -10.6 °C -12.9 °C 33856.6 hPa ENE 44.1 km/h 44.1 km/h 75 % 0 mm
19:49 -10.6 °C -12.9 °C 33856.6 hPa ENE 17.9 km/h 17.9 km/h 75 % 0 mm
19:55 -10.6 °C -12.9 °C 33822.8 hPa NE 32.3 km/h 32.3 km/h 75 % 0 mm
19:59 -10.6 °C -13.1 °C 33822.8 hPa NE 26.9 km/h 26.9 km/h 74 % 0 mm
20:00 -10.6 °C -11.9 °C 33822.8 hPa ESE 15.6 km/h 15.6 km/h 86 % 0 mm
20:04 -10.6 °C -12.9 °C 33822.8 hPa East 26.9 km/h 26.9 km/h 75 % 0 mm
20:09 -10.6 °C -12.9 °C 33822.8 hPa NE 23.8 km/h 23.8 km/h 75 % 0 mm
20:10 -10.7 °C -11.8 °C 33856.6 hPa ESE 5.1 km/h 10.3 km/h 87 % 0 mm
20:14 -10.6 °C -12.9 °C 33822.8 hPa ENE 26.9 km/h 26.9 km/h 75 % 0 mm
20:15 -10.6 °C -12.9 °C 33822.8 hPa ESE 20.9 km/h 20.9 km/h 75 % 0 mm
20:20 -10.6 °C -12.9 °C 33822.8 hPa ENE 32.8 km/h 32.8 km/h 75 % 0 mm
20:25 -10.6 °C -12.9 °C 33822.8 hPa ENE 29.8 km/h 29.8 km/h 75 % 0 mm
20:30 -10.6 °C -12.8 °C 33822.8 hPa ESE 26.9 km/h 26.9 km/h 76 % 0 mm
20:35 -10.6 °C -12.8 °C 33822.8 hPa North 35.7 km/h 35.7 km/h 76 % 0 mm
20:40 -10.6 °C -12.8 °C 33788.9 hPa NNE 19.6 km/h 19.6 km/h 76 % 0 mm
20:45 -10.6 °C -12.8 °C 33788.9 hPa East 29.8 km/h 29.8 km/h 76 % 0 mm
20:46 -10.5 °C -12.8 °C 33788.9 hPa ENE 29.8 km/h 29.8 km/h 76 % 0 mm
20:51 -10.5 °C -12.7 °C 33788.9 hPa NNE 25.9 km/h 25.9 km/h 77 % 0 mm
20:52 -10.5 °C -12.7 °C 33788.9 hPa NE 27.7 km/h 27.7 km/h 77 % 0 mm
20:57 -10.5 °C -12.7 °C 33788.9 hPa NNE 26.9 km/h 26.9 km/h 77 % 0 mm
21:02 -10.4 °C -12.6 °C 33788.9 hPa ENE 35.7 km/h 35.7 km/h 77 % 0 mm
21:05 -11.1 °C -12.4 °C 33822.8 hPa ENE 7.7 km/h 15.6 km/h 85 % 0 mm
21:06 -10.4 °C -12.6 °C 33788.9 hPa East 35.7 km/h 35.7 km/h 77 % 0 mm
21:11 -10.4 °C -12.6 °C 33788.9 hPa NE 31.4 km/h 31.4 km/h 77 % 0 mm
21:16 -10.4 °C -12.6 °C 33788.9 hPa North 23.8 km/h 23.8 km/h 77 % 0 mm
21:18 -10.4 °C -12.6 °C 33788.9 hPa NE 17.9 km/h 17.9 km/h 77 % 0 mm
21:23 -10.4 °C -12.6 °C 33788.9 hPa ENE 23.8 km/h 23.8 km/h 77 % 0 mm
21:25 -11.2 °C -12.6 °C 33822.8 hPa ENE 12.9 km/h 18.2 km/h 85 % 25.4 mm
21:26 -10.5 °C -12.7 °C 33788.9 hPa ENE 15.6 km/h 15.6 km/h 77 % 0 mm
21:28 -10.5 °C -12.7 °C 33788.9 hPa NNE 17.9 km/h 17.9 km/h 77 % 0 mm
21:33 -10.5 °C -12.7 °C 33788.9 hPa ESE 20.9 km/h 20.9 km/h 77 % 0 mm
21:35 -11.2 °C -12.6 °C 33822.8 hPa ENE 7.7 km/h 15.6 km/h 85 % 0 mm
21:38 -10.4 °C -12.6 °C 33751.6 hPa East 23.8 km/h 23.8 km/h 77 % 0 mm
21:43 -10.4 °C -12.6 °C 33751.6 hPa ENE 32.8 km/h 32.8 km/h 78 % 0 mm
21:45 -11.2 °C -12.4 °C 33822.8 hPa East 7.7 km/h 18.2 km/h 86 % 0 mm
21:48 -10.4 °C -12.6 °C 33751.6 hPa East 29.8 km/h 29.8 km/h 78 % 0 mm
21:52 -10.4 °C -12.4 °C 33788.9 hPa East 15.6 km/h 15.6 km/h 79 % 0 mm
21:55 -11.1 °C -12.4 °C 33822.8 hPa East 12.9 km/h 25.9 km/h 86 % 0 mm
21:57 -10.5 °C -12.6 °C 33788.9 hPa ENE 15 km/h 15 km/h 78 % 0 mm
22:02 -10.5 °C -12.4 °C 33788.9 hPa ENE 32.8 km/h 32.8 km/h 79 % 0 mm
22:05 -11.1 °C -12.3 °C 33822.8 hPa East 12.9 km/h 12.9 km/h 87 % 0 mm
22:07 -10.4 °C -12.4 °C 33751.6 hPa ESE 26.4 km/h 26.4 km/h 79 % 0 mm
22:13 -10.5 °C -12.4 °C 33751.6 hPa East 32.8 km/h 32.8 km/h 79 % 0 mm
22:15 -11.2 °C -12.6 °C 33822.8 hPa East 7.7 km/h 15.6 km/h 85 % 0 mm
22:18 -10.6 °C -12.4 °C 33751.6 hPa ENE 23.8 km/h 23.8 km/h 80 % 0 mm
22:23 -10.6 °C -12.4 °C 33751.6 hPa East 26.9 km/h 26.9 km/h 81 % 0 mm
22:27 -10.7 °C -12.4 °C 33751.6 hPa ENE 16.1 km/h 16.1 km/h 82 % 25.4 mm
22:32 -10.8 °C -12.4 °C 33751.6 hPa SSE 20.9 km/h 20.9 km/h 82 % 76.2 mm
22:35 -11.2 °C -12.8 °C 33822.8 hPa SE 5.1 km/h 12.9 km/h 83 % 0 mm
22:37 -10.8 °C -12.3 °C 33788.9 hPa SW 15.6 km/h 15.6 km/h 83 % 76.2 mm
22:39 -10.8 °C -12.3 °C 33788.9 hPa SSE 23.8 km/h 23.8 km/h 83 % 104.14 mm
22:44 -10.8 °C -12.4 °C 33788.9 hPa SSE 9 km/h 9 km/h 83 % 160.02 mm
22:49 -11.1 °C -12.7 °C 33788.9 hPa NNW 15 km/h 15 km/h 83 % 160.02 mm
22:50 -11.1 °C -12.7 °C 33788.9 hPa ESE 14.5 km/h 14.5 km/h 83 % 160.02 mm
22:55 -11.2 °C -12.6 °C 33788.9 hPa WNW 10.3 km/h 10.3 km/h 85 % 160.02 mm
23:01 -11 °C -12.3 °C 33788.9 hPa SE 15 km/h 15 km/h 85 % 160.02 mm
23:05 -11.3 °C -13.1 °C 33856.6 hPa ESE 2.6 km/h 7.7 km/h 81 % 0 mm
23:06 -10.9 °C -12.3 °C 33788.9 hPa ESE 6 km/h 6 km/h 85 % 160.02 mm
23:08 -10.9 °C -12.3 °C 33788.9 hPa SSW 9 km/h 9 km/h 85 % 160.02 mm
23:13 -10.9 °C -12.3 °C 33788.9 hPa SW 3.7 km/h 3.7 km/h 85 % 160.02 mm
23:15 -11.4 °C -13.2 °C 33856.6 hPa SE 7.7 km/h 7.7 km/h 80 % 0 mm
23:18 -10.9 °C -12.2 °C 33788.9 hPa SSW 20.9 km/h 20.9 km/h 86 % 160.02 mm
23:20 -10.8 °C -12.1 °C 33788.9 hPa East 20.9 km/h 20.9 km/h 86 % 160.02 mm
23:23 -10.8 °C -12.1 °C 33788.9 hPa ESE 26.9 km/h 26.9 km/h 85 % 160.02 mm
23:25 -11.4 °C -13.2 °C 33856.6 hPa ESE 5.1 km/h 7.7 km/h 80 % 0 mm
23:28 -10.7 °C -12.1 °C 33788.9 hPa ENE 20.9 km/h 20.9 km/h 85 % 134.62 mm
23:31 -10.7 °C -12.1 °C 33788.9 hPa East 20.9 km/h 20.9 km/h 85 % 109.22 mm
23:32 -10.7 °C -12.1 °C 33788.9 hPa ENE 20.9 km/h 20.9 km/h 85 % 83.82 mm
23:35 -11.5 °C -13.3 °C 33822.8 hPa Calm   5.1 km/h 80 % 0 mm
23:38 -10.7 °C -12.1 °C 33788.9 hPa SE 15 km/h 15 km/h 85 % 58.42 mm
23:39 -10.7 °C -12.1 °C 33788.9 hPa ESE 15 km/h 15 km/h 85 % 58.42 mm
23:44 -10.7 °C -12.1 °C 33788.9 hPa East 11.9 km/h 11.9 km/h 85 % 0 mm
23:45 -11.6 °C -13.4 °C 33822.8 hPa NNE 5.1 km/h 7.7 km/h 80 % 0 mm
23:49 -10.7 °C -12.1 °C 33788.9 hPa ENE 6 km/h 6 km/h 85 % 104.14 mm
23:54 -10.7 °C -12.1 °C 33822.8 hPa ENE 9 km/h 9 km/h 85 % 104.14 mm
Meteo Sesrovires
Elogis d' Weather Underground - 4 mb

Guio original per  Jim McMurry - jmcmurry@mwt.net Adaptat per a la plantilla per  Wim van der Kuil - Leuven-Template.eu

Trobareu la nostra informacio del temps tambe a:

Weather Underground

AWEKAS